Time;durP1;ratioP1;P1;durP2;ratioP2;P2;SDS_P1;SDS_P2;PMS_P1;PMS_P2;Temp;Humidity;BMP_temperature;BMP_pressure;BME280_temperature;BME280_humidity;BME280_pressure;Samples;Min_cycle;Max_cycle;Signal;HPM_P1;HPM_P2
2021/04/30 00:01:49;;;;;;;8.27;6.57;;;29.80;91.80;;;;;;5089575;28;20319;-49
2021/04/30 00:04:20;;;;;;;9.57;7.38;;;29.80;91.70;;;;;;5090098;28;20201;-50
2021/04/30 00:06:50;;;;;;;7.55;6.82;;;29.90;91.60;;;;;;5090065;28;20215;-48
2021/04/30 00:09:22;;;;;;;7.82;6.70;;;29.90;91.50;;;;;;5090563;28;20203;-53
2021/04/30 00:11:54;;;;;;;7.25;6.38;;;30.00;91.50;;;;;;5090369;28;20221;-51
2021/04/30 00:14:24;;;;;;;7.85;6.53;;;30.10;91.50;;;;;;5090298;28;20204;-48
2021/04/30 00:16:55;;;;;;;8.88;6.22;;;30.10;91.40;;;;;;5090487;28;20212;-52
2021/04/30 00:19:25;;;;;;;6.68;5.80;;;30.20;91.40;;;;;;5090387;28;20871;-51
2021/04/30 00:21:56;;;;;;;7.32;5.75;;;30.20;91.30;;;;;;5090240;28;20694;-50
2021/04/30 00:24:26;;;;;;;6.00;5.40;;;30.30;91.30;;;;;;5090797;28;20197;-51
2021/04/30 00:26:57;;;;;;;6.32;5.70;;;30.40;91.30;;;;;;5090721;28;20217;-51
2021/04/30 00:29:28;;;;;;;7.43;6.15;;;30.50;91.20;;;;;;5090856;28;20196;-53
2021/04/30 00:31:58;;;;;;;9.20;5.72;;;30.50;91.20;;;;;;5095543;28;20407;-50
2021/04/30 00:34:29;;;;;;;7.70;6.63;;;30.60;91.20;;;;;;5092027;28;20208;-53
2021/04/30 00:37:00;;;;;;;7.57;6.68;;;30.60;91.10;;;;;;5094653;28;20224;-48
2021/04/30 00:39:30;;;;;;;9.07;7.07;;;30.80;91.10;;;;;;5094655;28;20205;-51
2021/04/30 00:42:03;;;;;;;8.07;6.88;;;30.80;90.80;;;;;;5094968;28;20224;-51
2021/04/30 00:44:34;;;;;;;8.15;6.18;;;30.90;90.80;;;;;;5095176;28;20212;-49
2021/04/30 00:47:04;;;;;;;8.02;6.38;;;30.90;90.90;;;;;;5094517;28;20205;-49
2021/04/30 00:49:35;;;;;;;10.02;6.63;;;31.00;90.80;;;;;;5094735;28;20261;-49
2021/04/30 00:52:06;;;;;;;7.28;6.40;;;31.10;90.80;;;;;;5095059;28;20212;-49
2021/04/30 00:54:37;;;;;;;7.53;5.80;;;31.20;90.80;;;;;;5095591;28;20226;-49
2021/04/30 00:57:11;;;;;;;7.03;5.95;;;31.20;90.80;;;;;;5094785;28;20313;-50
2021/04/30 00:59:41;;;;;;;7.80;6.50;;;31.30;90.70;;;;;;5094397;28;20209;-53
2021/04/30 01:02:16;;;;;;;7.80;6.25;;;31.40;90.70;;;;;;5095075;28;20323;-50
2021/04/30 01:04:47;;;;;;;7.15;6.43;;;31.50;90.50;;;;;;5094754;28;20196;-50
2021/04/30 01:07:17;;;;;;;7.93;6.13;;;31.60;90.40;;;;;;5091377;28;20215;-52
2021/04/30 01:09:48;;;;;;;7.50;6.22;;;31.70;90.10;;;;;;5094175;28;20260;-51
2021/04/30 01:12:20;;;;;;;7.05;6.35;;;31.70;90.00;;;;;;5094653;28;20294;-50
2021/04/30 01:14:50;;;;;;;7.30;5.90;;;31.80;89.30;;;;;;5095016;28;20283;-49
2021/04/30 01:17:20;;;;;;;7.22;5.72;;;31.90;89.60;;;;;;5094464;28;20197;-51
2021/04/30 01:19:51;;;;;;;8.02;5.63;;;31.90;89.30;;;;;;5094393;28;20284;-48
2021/04/30 01:22:35;;;;;;;6.07;5.47;;;31.90;89.20;;;;;;5095074;28;20242;-50
2021/04/30 01:25:06;;;;;;;6.35;5.43;;;32.00;88.70;;;;;;5094720;28;20207;-51
2021/04/30 01:27:36;;;;;;;6.82;6.15;;;32.10;88.70;;;;;;5094622;28;20197;-49
2021/04/30 01:30:10;;;;;;;6.53;5.07;;;32.10;88.70;;;;;;5093102;28;20515;-50
2021/04/30 01:32:40;;;;;;;5.50;4.95;;;32.20;88.40;;;;;;5094178;28;20224;-51
2021/04/30 01:35:12;;;;;;;6.07;4.95;;;32.30;88.40;;;;;;5093695;28;20738;-49
2021/04/30 01:37:44;;;;;;;5.22;4.82;;;32.40;88.30;;;;;;5093934;28;20216;-52
2021/04/30 01:40:16;;;;;;;4.28;3.88;;;32.40;87.70;;;;;;5093713;28;20250;-49
2021/04/30 01:43:01;;;;;;;4.63;3.83;;;32.50;88.00;;;;;;5093831;28;20203;-49
2021/04/30 01:45:33;;;;;;;4.05;3.40;;;32.60;87.50;;;;;;5094300;28;20200;-50
2021/04/30 01:48:05;;;;;;;4.97;4.30;;;32.70;87.50;;;;;;5094443;28;20207;-51
2021/04/30 01:50:35;;;;;;;4.50;4.05;;;32.80;86.70;;;;;;5094483;28;20247;-52
2021/04/30 01:53:08;;;;;;;5.43;4.20;;;32.80;86.00;;;;;;5094339;28;20205;-52
2021/04/30 01:55:38;;;;;;;4.15;3.75;;;32.90;85.20;;;;;;5094244;28;20209;-51
2021/04/30 01:58:08;;;;;;;4.25;3.65;;;32.90;85.80;;;;;;5093995;28;20201;-47
2021/04/30 02:00:39;;;;;;;3.47;3.17;;;33.00;85.60;;;;;;5094061;28;20219;-47
2021/04/30 02:03:10;;;;;;;3.97;3.42;;;33.10;85.50;;;;;;5092970;28;20252;-49
2021/04/30 02:05:41;;;;;;;3.00;2.80;;;33.10;85.00;;;;;;5093866;28;20207;-50
2021/04/30 02:08:12;;;;;;;3.47;3.13;;;33.20;84.70;;;;;;5083777;28;20285;-50
2021/04/30 02:10:43;;;;;;;3.13;2.65;;;33.20;83.50;;;;;;5092064;28;20213;-50
2021/04/30 02:13:15;;;;;;;4.72;2.97;;;33.30;83.70;;;;;;5092618;28;20643;-48
2021/04/30 02:15:46;;;;;;;3.47;2.67;;;33.40;83.90;;;;;;5092828;28;20947;-48
2021/04/30 02:18:17;;;;;;;3.50;3.00;;;33.50;83.70;;;;;;5092846;28;20234;-48
2021/04/30 02:20:47;;;;;;;3.15;2.90;;;33.60;84.00;;;;;;5091951;28;20209;-48
2021/04/30 02:23:19;;;;;;;3.60;3.30;;;33.60;83.40;;;;;;5092344;28;20201;-50
2021/04/30 02:25:50;;;;;;;2.85;2.65;;;33.80;82.90;;;;;;5092710;28;20269;-51
2021/04/30 02:28:20;;;;;;;6.32;3.05;;;33.80;82.80;;;;;;5092688;28;20325;-53
2021/04/30 02:30:51;;;;;;;2.75;2.55;;;33.90;82.20;;;;;;5092734;28;20200;-51
2021/04/30 02:33:21;;;;;;;3.08;2.53;;;34.00;81.70;;;;;;5089032;28;20261;-50
2021/04/30 02:35:52;;;;;;;3.90;2.63;;;34.00;81.20;;;;;;5092525;28;20460;-49
2021/04/30 02:38:23;;;;;;;3.10;2.80;;;34.10;80.60;;;;;;5091639;28;20197;-50
2021/04/30 02:40:54;;;;;;;3.25;2.75;;;34.20;80.80;;;;;;5092055;28;20201;-53
2021/04/30 02:43:25;;;;;;;2.63;2.42;;;34.20;81.00;;;;;;5092144;28;20270;-51
2021/04/30 02:45:56;;;;;;;3.30;3.05;;;34.30;80.70;;;;;;5092400;28;20356;-50
2021/04/30 02:48:30;;;;;;;3.30;3.00;;;34.30;80.10;;;;;;5091915;28;20205;-49
2021/04/30 02:51:02;;;;;;;2.75;2.55;;;34.30;79.60;;;;;;5089911;28;20299;-52
2021/04/30 02:53:33;;;;;;;2.55;2.35;;;34.40;79.20;;;;;;5091889;28;20635;-49
2021/04/30 02:56:04;;;;;;;3.08;2.67;;;34.40;79.10;;;;;;5083038;28;20265;-50
2021/04/30 02:58:34;;;;;;;3.65;3.10;;;34.40;79.60;;;;;;5091979;28;20208;-51
2021/04/30 03:01:04;;;;;;;3.05;2.85;;;34.40;79.40;;;;;;5092643;28;20258;-51
2021/04/30 03:03:37;;;;;;;3.30;2.95;;;34.50;79.60;;;;;;5092647;28;20243;-49
2021/04/30 03:06:08;;;;;;;3.88;3.58;;;34.60;79.60;;;;;;5088831;28;20224;-51
2021/04/30 03:08:40;;;;;;;3.47;3.22;;;34.60;77.30;;;;;;5085953;28;20212;-50
2021/04/30 03:11:10;;;;;;;3.70;2.88;;;34.60;77.60;;;;;;5092309;28;20240;-53
2021/04/30 03:13:40;;;;;;;3.40;3.20;;;34.70;77.70;;;;;;5092252;28;20207;-50
2021/04/30 03:16:12;;;;;;;3.63;3.33;;;34.70;77.40;;;;;;5092051;28;20227;-49
2021/04/30 03:18:43;;;;;;;4.30;3.90;;;34.80;77.10;;;;;;5092207;28;20590;-52
2021/04/30 03:21:13;;;;;;;4.85;4.45;;;34.80;76.20;;;;;;5090810;28;20603;-50
2021/04/30 03:23:45;;;;;;;5.05;4.65;;;34.90;75.90;;;;;;5092609;28;20201;-49
2021/04/30 03:26:15;;;;;;;5.97;5.03;;;35.00;76.40;;;;;;5091672;28;20265;-51
2021/04/30 03:28:45;;;;;;;5.50;5.05;;;35.00;76.90;;;;;;5091853;28;20212;-51
2021/04/30 03:31:16;;;;;;;5.35;4.95;;;35.10;76.60;;;;;;5093083;28;20855;-50
2021/04/30 03:33:46;;;;;;;6.50;5.38;;;35.20;76.40;;;;;;5092467;28;20201;-48
2021/04/30 03:36:17;;;;;;;6.88;5.93;;;35.30;76.30;;;;;;5091900;28;20225;-49
2021/04/30 03:38:48;;;;;;;7.15;6.47;;;35.30;73.90;;;;;;5092124;28;20200;-48
2021/04/30 03:41:19;;;;;;;6.00;5.10;;;35.30;73.80;;;;;;5092464;28;20200;-51
2021/04/30 03:43:50;;;;;;;6.72;6.13;;;35.40;73.30;;;;;;5092228;28;20207;-52
2021/04/30 03:46:20;;;;;;;6.07;5.57;;;35.40;73.00;;;;;;5090712;28;20193;-51
2021/04/30 03:48:51;;;;;;;6.57;5.32;;;35.30;73.10;;;;;;5090015;28;20188;-50
2021/04/30 03:51:23;;;;;;;6.05;5.53;;;35.30;73.20;;;;;;5090110;28;20209;-49
2021/04/30 03:53:55;;;;;;;4.60;4.20;;;35.30;73.10;;;;;;5087584;28;20228;-53
2021/04/30 03:56:25;;;;;;;4.30;3.88;;;35.30;74.20;;;;;;5089861;28;20197;-50
2021/04/30 03:58:56;;;;;;;5.07;4.20;;;35.30;74.80;;;;;;5089915;28;20254;-52
2021/04/30 04:01:26;;;;;;;4.85;4.38;;;35.30;74.60;;;;;;5089289;28;20189;-52
2021/04/30 04:03:56;;;;;;;4.43;4.03;;;35.20;74.70;;;;;;5090195;28;21127;-48
2021/04/30 04:06:28;;;;;;;4.68;3.70;;;35.20;74.60;;;;;;5091029;28;20656;-50
2021/04/30 04:09:00;;;;;;;5.38;4.05;;;35.10;74.90;;;;;;5091831;28;20227;-50
2021/04/30 04:11:30;;;;;;;6.07;4.55;;;35.00;74.70;;;;;;5091311;28;20208;-53
2021/04/30 04:14:00;;;;;;;5.13;3.92;;;34.90;74.60;;;;;;5048774;28;20200;-50
2021/04/30 04:16:36;;;;;;;3.92;3.50;;;34.90;74.60;;;;;;5048801;28;20220;-51
2021/04/30 04:19:28;;;;;;;4.88;4.40;;;34.70;75.20;;;;;;5048246;28;20198;-50
2021/04/30 04:24:54;;;;;;;10.73;8.57;;;34.40;77.70;;;;;;5045517;28;20198;-48
2021/04/30 04:27:25;;;;;;;10.60;9.57;;;34.30;78.60;;;;;;5046769;28;20684;-48
2021/04/30 04:29:56;;;;;;;10.88;9.98;;;33.90;76.90;;;;;;5046987;28;20202;-53
2021/04/30 04:32:29;;;;;;;9.50;8.70;;;33.60;76.80;;;;;;5048863;28;20217;-48
2021/04/30 04:35:00;;;;;;;7.72;7.03;;;33.30;77.60;;;;;;5043573;28;20273;-51
2021/04/30 04:37:30;;;;;;;9.95;9.13;;;33.10;78.10;;;;;;5039480;28;20237;-51
2021/04/30 04:40:02;;;;;;;10.20;9.20;;;32.80;78.80;;;;;;5049176;28;20194;-51
2021/04/30 04:42:33;;;;;;;9.65;8.85;;;32.60;80.10;;;;;;5049187;28;20187;-50
2021/04/30 04:45:03;;;;;;;10.00;9.10;;;32.40;81.30;;;;;;5069017;28;20193;-50
2021/04/30 04:47:33;;;;;;;9.60;8.80;;;32.20;81.80;;;;;;5092508;28;20200;-49
2021/04/30 04:50:20;;;;;;;8.48;7.78;;;32.00;82.70;;;;;;5094010;28;20553;-52
2021/04/30 04:52:51;;;;;;;8.27;7.65;;;31.90;83.10;;;;;;5091179;28;20272;-49
2021/04/30 04:55:22;;;;;;;9.95;9.25;;;31.80;83.20;;;;;;5080867;28;20204;-54
2021/04/30 04:57:52;;;;;;;9.48;8.77;;;31.70;84.30;;;;;;5093254;28;20218;-51
2021/04/30 05:00:24;;;;;;;9.43;8.63;;;31.60;84.60;;;;;;5093247;28;20209;-48
2021/04/30 05:02:54;;;;;;;10.57;9.68;;;31.50;85.30;;;;;;5088577;28;20697;-51
2021/04/30 05:05:25;;;;;;;10.38;9.57;;;31.50;85.80;;;;;;5091234;28;20201;-50
2021/04/30 05:07:58;;;;;;;9.90;9.20;;;31.40;85.40;;;;;;5092882;28;20274;-49
2021/04/30 05:10:30;;;;;;;10.88;9.98;;;31.40;85.30;;;;;;5091960;28;20197;-50
2021/04/30 05:13:01;;;;;;;10.20;9.50;;;31.30;85.60;;;;;;5091007;28;20838;-48
2021/04/30 05:15:31;;;;;;;9.90;9.10;;;31.30;85.00;;;;;;5091532;28;20748;-49
2021/04/30 05:18:02;;;;;;;11.18;10.27;;;31.40;85.70;;;;;;5095950;28;20234;-52
2021/04/30 05:20:33;;;;;;;11.43;10.48;;;31.30;86.00;;;;;;5095833;28;20197;-51
2021/04/30 05:23:04;;;;;;;12.10;11.20;;;31.30;86.40;;;;;;5095417;28;20193;-48
2021/04/30 05:25:44;;;;;;;10.65;9.77;;;31.30;86.60;;;;;;5095661;28;20664;-52
2021/04/30 05:28:14;;;;;;;11.73;10.70;;;31.30;86.60;;;;;;5084811;28;20219;-52
2021/04/30 05:30:45;;;;;;;11.43;10.48;;;31.30;86.50;;;;;;5096139;28;20649;-50
2021/04/30 05:33:15;;;;;;;11.88;10.88;;;31.30;86.60;;;;;;5095738;28;20213;-48
2021/04/30 05:35:46;;;;;;;13.00;11.90;;;31.20;86.80;;;;;;5095611;28;20229;-50
2021/04/30 05:38:17;;;;;;;13.02;12.00;;;31.10;86.80;;;;;;5095135;28;20232;-50
2021/04/30 05:40:49;;;;;;;11.32;10.48;;;31.00;86.30;;;;;;5095101;28;20250;-49
2021/04/30 05:43:19;;;;;;;10.77;9.93;;;31.00;86.50;;;;;;5095294;28;20261;-48
2021/04/30 05:45:50;;;;;;;11.48;10.52;;;31.00;86.70;;;;;;5095047;28;20261;-52
2021/04/30 05:48:20;;;;;;;12.98;11.88;;;30.90;86.80;;;;;;5094690;28;20581;-52
2021/04/30 05:50:51;;;;;;;12.80;11.75;;;30.90;86.80;;;;;;5094866;28;20266;-49
2021/04/30 05:53:22;;;;;;;12.43;11.43;;;30.80;87.10;;;;;;5095014;28;20426;-52
2021/04/30 05:55:54;;;;;;;12.25;11.25;;;30.70;87.40;;;;;;5094836;28;20193;-53
2021/04/30 05:58:24;;;;;;;11.77;10.88;;;30.70;87.90;;;;;;5091504;28;20188;-50
2021/04/30 06:00:55;;;;;;;12.00;11.00;;;30.70;88.20;;;;;;5091137;28;20759;-49
2021/04/30 06:03:28;;;;;;;12.98;11.95;;;30.60;88.30;;;;;;5094701;28;20228;-52
2021/04/30 06:05:58;;;;;;;12.80;11.80;;;30.60;88.70;;;;;;5094978;28;20201;-51
2021/04/30 06:08:29;;;;;;;12.68;11.68;;;30.60;89.00;;;;;;5094599;28;20205;-52
2021/04/30 06:11:01;;;;;;;12.45;11.52;;;30.60;89.10;;;;;;5094878;28;20200;-53
2021/04/30 06:13:31;;;;;;;12.43;11.50;;;30.50;89.20;;;;;;5084696;28;20215;-50
2021/04/30 06:16:02;;;;;;;12.13;11.23;;;30.50;88.90;;;;;;5095012;28;20192;-51
2021/04/30 06:18:33;;;;;;;13.40;12.45;;;30.40;89.10;;;;;;5094733;28;20633;-48
2021/04/30 06:21:04;;;;;;;13.50;12.40;;;30.40;89.20;;;;;;5094514;28;20275;-49
2021/04/30 06:23:35;;;;;;;13.23;12.25;;;30.40;89.60;;;;;;5095238;28;20197;-53
2021/04/30 06:26:07;;;;;;;13.43;12.45;;;30.40;89.40;;;;;;5031989;28;20352;-50
2021/04/30 06:28:37;;;;;;;13.15;12.25;;;30.40;89.70;;;;;;5030121;28;20310;-49
2021/04/30 06:31:08;;;;;;;13.15;12.25;;;30.40;89.90;;;;;;5031297;28;20281;-51
2021/04/30 06:33:38;;;;;;;15.20;14.10;;;30.40;90.00;;;;;;5031506;28;20222;-51
2021/04/30 06:36:09;;;;;;;14.90;13.80;;;30.40;89.90;;;;;;5030996;28;20305;-50
2021/04/30 06:38:39;;;;;;;15.40;14.30;;;30.40;90.00;;;;;;5031111;28;20286;-48
2021/04/30 06:41:11;;;;;;;15.20;14.10;;;30.40;90.00;;;;;;5031146;28;20211;-49
2021/04/30 06:43:42;;;;;;;17.90;16.42;;;30.40;90.10;;;;;;5031028;28;20207;-52
2021/04/30 06:46:12;;;;;;;16.35;15.15;;;30.40;90.00;;;;;;5031359;28;20306;-50
2021/04/30 06:48:51;;;;;;;14.52;13.45;;;30.40;90.00;;;;;;5030514;28;20233;-50
2021/04/30 06:51:22;;;;;;;14.90;13.80;;;30.40;90.00;;;;;;5030628;28;20210;-47
2021/04/30 06:53:53;;;;;;;15.27;14.18;;;30.40;90.10;;;;;;5028359;28;20217;-48
2021/04/30 06:56:25;;;;;;;15.10;14.00;;;30.40;90.10;;;;;;5042089;28;20208;-50
2021/04/30 06:58:56;;;;;;;16.75;15.55;;;30.40;90.20;;;;;;5086892;28;20184;-49
2021/04/30 07:01:26;;;;;;;15.23;14.15;;;30.40;90.00;;;;;;5029271;28;20746;-47
2021/04/30 07:03:58;;;;;;;14.55;13.48;;;30.50;90.10;;;;;;5025838;28;20208;-50
2021/04/30 07:06:32;;;;;;;12.48;11.50;;;30.40;90.20;;;;;;5008072;28;20208;-50
2021/04/30 07:09:03;;;;;;;11.90;11.05;;;30.50;90.30;;;;;;5009074;28;20597;-49
2021/04/30 07:11:34;;;;;;;12.55;11.55;;;30.50;90.40;;;;;;5008489;28;20192;-51
2021/04/30 07:14:05;;;;;;;13.05;12.15;;;30.60;90.50;;;;;;5007549;28;20257;-48
2021/04/30 07:16:42;;;;;;;11.98;11.07;;;30.60;90.50;;;;;;5008692;28;20297;-48
2021/04/30 07:19:12;;;;;;;12.52;11.63;;;30.60;90.40;;;;;;5009617;28;20191;-49
2021/04/30 07:21:43;;;;;;;13.15;12.15;;;30.70;90.20;;;;;;5006856;28;20206;-48
2021/04/30 07:24:14;;;;;;;13.48;12.43;;;30.70;90.20;;;;;;5009765;28;20227;-50
2021/04/30 07:26:45;;;;;;;12.48;11.57;;;30.80;90.10;;;;;;5043545;28;20209;-48
2021/04/30 07:29:16;;;;;;;12.15;11.25;;;30.80;90.10;;;;;;5052630;28;20201;-49
2021/04/30 07:31:46;;;;;;;13.18;12.05;;;30.80;90.20;;;;;;5052355;28;20234;-52
2021/04/30 07:34:36;;;;;;;13.35;12.15;;;30.80;90.10;;;;;;5051658;28;20233;-48
2021/04/30 07:37:07;;;;;;;10.73;9.93;;;30.90;90.00;;;;;;5051929;28;20194;-49
2021/04/30 07:39:39;;;;;;;10.68;9.88;;;30.90;89.80;;;;;;5051474;28;20270;-47
2021/04/30 07:42:12;;;;;;;9.93;9.15;;;30.90;89.60;;;;;;5050643;28;20194;-53
2021/04/30 07:44:44;;;;;;;9.35;8.65;;;30.90;90.00;;;;;;5051877;28;20240;-49
2021/04/30 07:47:15;;;;;;;9.63;8.82;;;30.90;90.00;;;;;;5052082;28;20217;-51
2021/04/30 07:49:46;;;;;;;9.68;8.98;;;31.00;90.20;;;;;;5052356;28;20202;-49
2021/04/30 07:52:17;;;;;;;11.43;10.60;;;31.00;90.10;;;;;;5051498;28;20214;-48
2021/04/30 07:54:47;;;;;;;9.70;9.00;;;31.10;90.00;;;;;;5051557;28;20195;-49
2021/04/30 07:57:19;;;;;;;9.80;9.00;;;31.10;89.70;;;;;;5051297;28;20191;-49
2021/04/30 07:59:49;;;;;;;9.05;8.35;;;31.20;89.70;;;;;;5049991;28;20194;-50
2021/04/30 08:02:19;;;;;;;8.75;8.05;;;31.30;89.60;;;;;;5065331;28;20244;-49
2021/04/30 08:04:50;;;;;;;8.30;7.70;;;31.40;89.40;;;;;;5092104;28;20199;-50
2021/04/30 08:07:20;;;;;;;8.55;7.85;;;31.40;89.40;;;;;;5089225;28;20191;-49
2021/04/30 08:09:53;;;;;;;8.88;8.27;;;31.60;89.30;;;;;;5091000;28;20216;-49
2021/04/30 08:12:25;;;;;;;8.77;7.97;;;31.60;88.50;;;;;;5091445;28;20623;-51
2021/04/30 08:14:55;;;;;;;10.25;9.45;;;31.80;88.40;;;;;;5091914;28;20706;-49
2021/04/30 08:17:25;;;;;;;9.38;8.57;;;31.90;87.70;;;;;;5091186;28;20189;-49
2021/04/30 08:19:58;;;;;;;8.38;7.78;;;31.90;86.80;;;;;;5092312;28;20209;-49
2021/04/30 08:22:29;;;;;;;8.25;7.65;;;32.00;86.40;;;;;;5091806;28;20569;-51
2021/04/30 08:24:59;;;;;;;7.80;7.20;;;32.10;85.80;;;;;;5088618;28;20185;-52
2021/04/30 08:27:32;;;;;;;8.73;8.02;;;32.10;84.70;;;;;;5091352;28;20185;-51
2021/04/30 08:30:02;;;;;;;7.45;6.95;;;32.20;83.60;;;;;;5089970;28;20200;-52
2021/04/30 08:32:33;;;;;;;8.07;7.50;;;32.30;83.70;;;;;;5090429;28;20209;-50
2021/04/30 08:35:03;;;;;;;8.95;8.25;;;32.40;83.20;;;;;;5090676;28;20240;-52
2021/04/30 08:37:34;;;;;;;8.40;7.80;;;32.50;83.20;;;;;;5090677;28;20197;-54
2021/04/30 08:40:06;;;;;;;8.05;7.45;;;32.60;82.50;;;;;;5088670;28;20188;-51
2021/04/30 08:42:37;;;;;;;7.80;7.20;;;32.70;81.60;;;;;;5091722;28;20227;-51
2021/04/30 08:45:09;;;;;;;8.27;7.68;;;32.80;82.10;;;;;;5028738;28;20206;-50
2021/04/30 08:47:39;;;;;;;8.40;7.75;;;32.90;82.30;;;;;;4969611;28;20216;-52
2021/04/30 08:50:10;;;;;;;8.10;7.50;;;33.10;82.10;;;;;;4969857;28;20654;-48
2021/04/30 08:52:40;;;;;;;7.63;6.97;;;33.20;81.80;;;;;;4971960;28;20224;-50
2021/04/30 08:55:14;;;;;;;7.93;7.32;;;33.30;80.60;;;;;;4971865;28;20684;-51
2021/04/30 08:57:54;;;;;;;7.22;6.72;;;33.40;80.80;;;;;;4972356;28;20299;-52
2021/04/30 09:00:27;;;;;;;7.13;6.53;;;33.50;80.00;;;;;;4972251;28;20222;-48
2021/04/30 09:02:57;;;;;;;6.78;6.28;;;33.60;79.60;;;;;;4970809;28;20728;-53
2021/04/30 09:05:28;;;;;;;6.93;6.43;;;33.70;79.50;;;;;;4973045;28;20669;-49
2021/04/30 09:07:59;;;;;;;6.75;6.15;;;33.80;79.50;;;;;;4972740;28;20212;-49
2021/04/30 09:10:30;;;;;;;6.28;5.80;;;33.90;78.90;;;;;;5021755;28;20206;-54
2021/04/30 09:13:09;;;;;;;6.72;6.22;;;34.00;78.80;;;;;;5028203;28;20218;-51
2021/04/30 09:15:39;;;;;;;5.93;5.53;;;34.10;78.30;;;;;;5021282;28;20728;-50
2021/04/30 09:18:19;;;;;;;6.25;5.65;;;34.30;77.90;;;;;;5031770;28;20230;-52
2021/04/30 09:20:51;;;;;;;5.70;5.30;;;34.30;76.60;;;;;;5031907;28;20209;-49
2021/04/30 09:23:41;;;;;;;6.50;6.00;;;34.40;77.20;;;;;;5031820;28;20382;-52
2021/04/30 09:26:25;;;;;;;6.18;5.68;;;34.50;76.20;;;;;;5090167;28;20299;-49
2021/04/30 09:29:06;;;;;;;5.75;5.28;;;34.50;76.50;;;;;;5095055;28;20227;-52
2021/04/30 09:31:37;;;;;;;5.78;5.38;;;34.60;76.80;;;;;;5094266;28;20231;-49
2021/04/30 09:34:23;;;;;;;6.13;5.55;;;34.60;76.90;;;;;;5088550;28;20239;-49
2021/04/30 09:37:04;;;;;;;6.20;5.63;;;34.70;76.10;;;;;;5093600;28;20235;-48
2021/04/30 09:39:52;;;;;;;6.55;6.05;;;34.80;74.80;;;;;;5095722;28;20192;-50
2021/04/30 09:42:23;;;;;;;6.35;5.85;;;34.90;75.40;;;;;;5095148;28;20223;-51
2021/04/30 09:44:56;;;;;;;6.18;5.68;;;35.00;75.50;;;;;;5096058;28;20212;-48
2021/04/30 09:47:27;;;;;;;6.15;5.55;;;35.00;75.00;;;;;;5096298;28;20250;-52
2021/04/30 09:49:57;;;;;;;5.63;5.22;;;35.00;75.20;;;;;;5095997;28;20684;-50
2021/04/30 09:52:29;;;;;;;5.85;5.45;;;35.10;75.50;;;;;;5095364;28;20217;-49
2021/04/30 09:55:01;;;;;;;6.97;6.32;;;35.20;75.60;;;;;;5094397;28;20201;-53
2021/04/30 09:57:32;;;;;;;6.72;5.75;;;35.30;75.70;;;;;;5096120;28;20625;-53
2021/04/30 10:00:06;;;;;;;6.80;6.20;;;35.30;75.60;;;;;;5095977;28;20209;-49
2021/04/30 10:02:36;;;;;;;6.65;6.15;;;35.40;75.00;;;;;;5094006;28;20236;-50
2021/04/30 10:05:10;;;;;;;7.35;6.75;;;35.50;74.30;;;;;;5096113;28;20287;-49
2021/04/30 10:08:00;;;;;;;6.15;5.55;;;35.60;73.50;;;;;;5095577;28;20207;-47
2021/04/30 10:10:31;;;;;;;7.40;6.88;;;35.60;73.50;;;;;;5095492;28;20204;-52
2021/04/30 10:13:02;;;;;;;5.95;5.45;;;35.60;73.10;;;;;;5092147;28;20209;-49
2021/04/30 10:15:33;;;;;;;7.10;6.43;;;35.60;73.30;;;;;;5096207;28;20213;-51
2021/04/30 10:18:03;;;;;;;7.10;6.50;;;35.60;73.60;;;;;;5095565;28;20227;-52
2021/04/30 10:20:33;;;;;;;7.00;6.40;;;35.60;73.80;;;;;;5095317;28;20689;-51
2021/04/30 10:23:05;;;;;;;7.03;6.47;;;35.60;73.90;;;;;;5095173;28;20671;-51
2021/04/30 10:25:35;;;;;;;6.22;5.72;;;35.70;74.20;;;;;;5081805;28;20193;-49
2021/04/30 10:28:06;;;;;;;7.22;6.63;;;35.70;74.20;;;;;;5096044;28;20205;-51
2021/04/30 10:30:39;;;;;;;6.60;6.10;;;35.70;74.00;;;;;;5094936;28;20695;-48
2021/04/30 10:33:10;;;;;;;7.35;6.75;;;35.70;73.60;;;;;;5094371;28;20290;-50
2021/04/30 10:35:46;;;;;;;7.55;6.95;;;35.70;73.70;;;;;;5080315;28;20225;-49
2021/04/30 10:38:18;;;;;;;6.95;6.38;;;35.80;73.80;;;;;;5095968;28;20210;-51
2021/04/30 10:40:59;;;;;;;7.15;6.65;;;36.00;74.70;;;;;;5095871;28;20214;-52
2021/04/30 10:43:29;;;;;;;6.25;5.85;;;36.30;75.10;;;;;;5094572;28;20246;-51
2021/04/30 10:46:05;;;;;;;5.80;5.30;;;36.60;75.30;;;;;;5094418;28;20280;-54
2021/04/30 10:48:38;;;;;;;5.65;5.15;;;36.70;72.70;;;;;;5094260;28;20200;-50
2021/04/30 10:51:13;;;;;;;5.70;5.15;;;37.00;72.20;;;;;;5096225;28;20640;-49
2021/04/30 10:53:45;;;;;;;5.07;4.68;;;37.10;71.90;;;;;;5094495;28;20269;-50
2021/04/30 10:56:33;;;;;;;5.22;4.68;;;37.20;71.60;;;;;;5095456;28;20204;-54
2021/04/30 10:59:04;;;;;;;4.95;4.55;;;37.40;71.50;;;;;;5095694;28;20197;-53
2021/04/30 11:01:37;;;;;;;6.25;4.80;;;37.50;71.20;;;;;;5031107;28;20249;-49
2021/04/30 11:04:17;;;;;;;7.00;4.72;;;37.60;69.80;;;;;;5032080;28;20209;-51
2021/04/30 11:06:52;;;;;;;4.95;4.28;;;37.50;68.90;;;;;;5032052;28;20216;-50
2021/04/30 11:09:33;;;;;;;4.40;4.10;;;37.40;68.70;;;;;;4972980;28;20247;-53
2021/04/30 11:12:19;;;;;;;4.78;4.32;;;37.20;68.60;;;;;;4971699;28;20240;-50
2021/04/30 11:15:13;;;;;;;5.72;5.32;;;37.00;68.70;;;;;;4963421;28;20220;-51
2021/04/30 11:17:52;;;;;;;6.03;5.53;;;36.70;68.80;;;;;;4955728;28;20281;-49
2021/04/30 11:20:23;;;;;;;5.90;5.40;;;36.50;69.30;;;;;;4972194;28;20208;-51
2021/04/30 11:23:18;;;;;;;6.68;5.72;;;36.20;69.50;;;;;;4973120;28;20288;-53
2021/04/30 11:26:07;;;;;;;6.38;5.13;;;36.00;70.20;;;;;;4972838;28;20200;-50
2021/04/30 11:29:07;;;;;;;6.15;5.65;;;35.80;71.30;;;;;;5030701;28;20478;-51
2021/04/30 11:31:39;;;;;;;6.72;6.15;;;35.50;71.80;;;;;;5005516;28;20206;-52
2021/04/30 11:34:23;;;;;;;7.00;6.40;;;35.30;71.80;;;;;;5087852;28;20274;-53
2021/04/30 11:36:57;;;;;;;7.07;6.47;;;35.10;73.10;;;;;;5093583;28;20282;-51
2021/04/30 11:39:29;;;;;;;6.13;5.63;;;34.90;73.40;;;;;;5093417;28;20188;-53
2021/04/30 11:42:03;;;;;;;6.13;5.53;;;34.70;73.80;;;;;;5092913;28;20257;-49
2021/04/30 11:44:34;;;;;;;6.07;5.57;;;34.60;74.30;;;;;;5092650;28;20189;-51
2021/04/30 11:47:04;;;;;;;6.47;5.88;;;34.40;74.70;;;;;;5091526;28;20189;-55
2021/04/30 11:49:38;;;;;;;6.15;5.57;;;34.30;75.30;;;;;;5091964;28;20197;-54
2021/04/30 11:52:10;;;;;;;6.63;5.97;;;34.20;75.80;;;;;;5091305;28;20270;-55
2021/04/30 11:54:41;;;;;;;7.70;7.00;;;34.10;76.10;;;;;;5091688;28;20203;-51
2021/04/30 11:57:12;;;;;;;9.98;8.98;;;34.00;76.40;;;;;;5090744;28;20558;-50
2021/04/30 11:59:44;;;;;;;7.28;6.60;;;33.90;76.70;;;;;;5091583;28;20193;-53
2021/04/30 12:02:30;;;;;;;5.93;5.43;;;33.80;77.00;;;;;;5094140;28;20330;-55
2021/04/30 12:05:03;;;;;;;6.25;5.72;;;33.80;77.30;;;;;;5092195;28;20246;-53
2021/04/30 12:07:37;;;;;;;5.93;5.43;;;33.70;77.80;;;;;;5091431;28;21014;-53
2021/04/30 12:10:19;;;;;;;5.57;4.90;;;33.70;78.00;;;;;;5026353;28;20202;-54
2021/04/30 12:12:49;;;;;;;5.88;5.35;;;33.60;78.00;;;;;;5028389;28;20273;-54
2021/04/30 12:15:28;;;;;;;5.60;5.20;;;33.60;78.50;;;;;;5028323;28;20227;-55
2021/04/30 12:17:58;;;;;;;5.75;5.25;;;33.50;79.10;;;;;;5027933;28;20657;-51
2021/04/30 12:20:30;;;;;;;6.38;5.78;;;33.40;78.70;;;;;;5028276;28;20187;-55
2021/04/30 12:23:01;;;;;;;7.30;5.63;;;33.40;79.10;;;;;;5029667;28;20191;-54
2021/04/30 12:25:39;;;;;;;6.07;5.57;;;33.40;79.30;;;;;;5028569;28;20316;-55
2021/04/30 12:28:30;;;;;;;6.72;5.55;;;33.30;80.00;;;;;;5026107;28;20227;-54
2021/04/30 12:31:01;;;;;;;7.88;7.15;;;33.30;80.30;;;;;;5028248;28;20281;-52
2021/04/30 12:33:37;;;;;;;6.30;5.70;;;33.20;79.70;;;;;;5030651;28;20670;-51
2021/04/30 12:36:10;;;;;;;8.07;6.13;;;33.20;80.30;;;;;;5088653;28;20220;-52
2021/04/30 12:38:41;;;;;;;6.72;6.00;;;33.20;80.40;;;;;;5090581;28;20197;-52
2021/04/30 12:41:13;;;;;;;7.80;6.03;;;33.10;80.50;;;;;;5090951;28;20189;-51
2021/04/30 12:43:48;;;;;;;8.82;6.22;;;33.00;80.70;;;;;;5089118;28;20193;-53
2021/04/30 12:46:19;;;;;;;8.13;7.43;;;33.10;80.90;;;;;;5091513;28;20558;-51
2021/04/30 12:48:51;;;;;;;8.20;6.85;;;33.00;81.10;;;;;;5091221;28;20525;-53
2021/04/30 12:51:26;;;;;;;5.78;5.28;;;32.90;81.10;;;;;;5091366;28;20246;-50
2021/04/30 12:53:57;;;;;;;6.25;5.65;;;32.90;81.60;;;;;;5090738;28;20259;-54
2021/04/30 12:56:29;;;;;;;7.68;7.07;;;32.90;81.50;;;;;;5089183;28;20208;-53
2021/04/30 12:59:07;;;;;;;6.97;6.07;;;32.90;81.70;;;;;;5091102;28;20223;-52
2021/04/30 13:01:38;;;;;;;6.88;6.22;;;32.80;82.20;;;;;;5090133;28;20192;-52
2021/04/30 13:04:09;;;;;;;7.95;6.70;;;32.70;81.90;;;;;;5051296;28;20193;-53
2021/04/30 13:06:41;;;;;;;6.55;6.05;;;32.70;82.20;;;;;;5051328;28;20198;-54
2021/04/30 13:09:14;;;;;;;7.78;5.78;;;32.70;82.50;;;;;;5049037;28;20562;-53
2021/04/30 13:11:59;;;;;;;7.93;6.10;;;32.60;82.80;;;;;;5039599;28;20296;-54
2021/04/30 13:14:41;;;;;;;6.70;6.20;;;32.60;82.80;;;;;;5049153;28;20224;-53